Detalii statie AGROMEC VLAD TEPES [00001989]

Toti senzorii

Date Temperatura solului [C]Precipitatii [mm]Voltaj baterie [mV]Leaf Wetness [Min]HC Air temperature [C]HC Relative humidity [%]Punctul de roua [C]
medieminmaxsumaultimatimpmedieminmaxmediemediemin
2017-06-25 06:00:00 23.5 23.4 23.7 0 6748 17.87 17.1 18.89 33.22 0.9 -4.1
2017-06-25 07:00:00 23.2 23.2 23.5 0 7304 21.16 19.39 22.77 4.75 0
2017-06-25 08:00:00 23.2 23.1 23.4 0 7332 24.25 22.91 25.74 0 0 0
2017-06-25 09:00:00 23.6 23.3 24 0 7332 27.09 26 28.31 0 0 0
2017-06-25 10:00:00 24.5 24.1 25.2 0 7332 29.3 28.2 30.09 0 0 0
2017-06-25 11:00:00 25.8 25.3 26.5 0 7332 31.45 29.82 32.19 0 0 0
2017-06-25 12:00:00 27.3 26.6 28 0 7324 32.81 31.92 33.61 0 0 0
2017-06-25 13:00:00 28.8 28.1 29.2 0 7236 33.64 32.35 34.72 0 0 0
2017-06-25 14:00:00 30 29.5 30.7 0 6962 33.81 33.04 35.76 0 0 0
2017-06-25 15:00:00 31.2 30.8 31.7 0 6904 33.93 32.6 35.16 0 0 0
2017-06-25 16:00:00 32.1 31.9 32.6 0 6864 60 34.57 33.73 35.47 0 0 0
2017-06-25 17:00:00 32.7 32.5 33 0 6864 33.17 31.76 34.57 0 0 0
2017-06-25 18:00:00 32.9 32.9 33.2 0 6834 32.07 31.59 33.14 0 0 0
2017-06-25 19:00:00 32.5 32.4 32.7 0 6816 29.42 28.74 30.28 0 0
2017-06-25 20:00:00 31.8 31.4 32.3 0 6776 26.78 24.81 28.42 0 0 0
2017-06-25 21:00:00 30.8 30.4 31.3 0 6766 24.29 23.15 25.45 0 0 0
2017-06-25 22:00:00 29.8 29.2 30.4 0 6748 22.92 21.66 23.71 0 0 0
2017-06-25 23:00:00 28.8 28.4 29.3 0 6728 20.92 20.36 21.55 0 0 0
2017-06-26 00:00:00 28 27.6 28.4 0 6728 20 19.63 20.33 0 0 0
2017-06-26 01:00:00 27.3 27 27.7 0 6718 18.93 18.48 19.52 0 0 0
2017-06-26 02:00:00 26.6 26.4 26.9 0 6708 18.44 18.36 18.54 0 0 0
2017-06-26 03:00:00 26 25.8 26.4 0 6688 18.29 18.15 18.45 0 0 0
2017-06-26 04:00:00 25.5 25.3 25.9 0 6678 18.25 18.12 18.45 0 0 0
2017-06-26 05:00:00 25.1 24.9 25.3 0 6688 17.92 17.73 18.2 0 0 0
2017-06-26 06:00:00 24.6 24.4 24.9 0 7128 19.59 18.15 20.85 0 0 0
2017-06-26 07:00:00 24.4 24.3 24.5 0 7274 22.66 21.58 24.2 0 0 0
2017-06-26 08:00:00 24.4 24.3 24.6 0 7332 25.81 24.28 27.29 0 0 0
2017-06-26 09:00:00 24.8 24.6 25.3 0 7332 28.17 27.13 29.2 0 0 0
2017-06-26 10:00:00 25.8 25.5 26.4 0 7332 30.39 29.45 31.29 0 0 0
2017-06-26 11:00:00 27.1 26.4 27.7 0 7324 31.82 31.11 32.73 0 0 0
2017-06-26 12:00:00 28.5 27.9 29.2 0 7332 32.92 32.15 34.01 0 0 0
2017-06-26 13:00:00 30 29.2 30.7 0 7314 33.58 32.49 34.34 0 0 0
2017-06-26 14:00:00 31.2 30.8 31.7 0 6952 34 33.37 34.61 0 0 0
2017-06-26 15:00:00 32.3 31.7 32.9 0 6884 34.59 33.9 35.62 0 0 0
2017-06-26 16:00:00 33.2 32.8 33.6 0 6854 60 33.96 33.24 34.63 0 0 0
2017-06-26 17:00:00 33.8 33.5 34.2 0 6844 33.53 32.75 34.07 0 0 0
2017-06-26 18:00:00 34 33.9 34.2 0 6844 31.64 30.89 32.53 0 0 0
2017-06-26 19:00:00 33.7 33.4 34 0 6826 29.59 28.28 30.73 0 0 0
2017-06-26 20:00:00 32.8 32.3 33.3 0 6776 26.85 25.96 28.02 0 0 0
2017-06-26 21:00:00 31.7 31.3 32.3 0 6756 24.65 23.62 25.59 0 0 0
2017-06-26 22:00:00 30.7 30.4 31.3 0 6738 22.91 22.32 23.43 0 0 0
2017-06-26 23:00:00 29.7 29.4 30.3 0 6738 21.32 20.23 22.21 0 0 0
2017-06-27 00:00:00 28.9 28.6 29.2 0 6718 19.59 19.33 20.12 0 0 0
2017-06-27 01:00:00 28.1 27.9 28.5 0 6698 19.05 18.77 19.43 0 0 0
2017-06-27 02:00:00 27.5 27.3 27.8 0 6688 18.88 18.44 19.3 0 0 0
2017-06-27 03:00:00 26.9 26.6 27.2 0 6678 18.12 17.9 18.35 0 0 0
2017-06-27 04:00:00 26.4 26.2 26.7 0 6668 18.01 17.83 18.14 33.05 3.2 0
2017-06-27 05:00:00 25.9 25.7 26.2 0 6668 18.2 18.03 18.59 40.72 4.3 3.1